Time;durP1;ratioP1;P1;durP2;ratioP2;P2;SDS_P1;SDS_P2;PMS_P1;PMS_P2;Temp;Humidity;BMP_temperature;BMP_pressure;BME280_temperature;BME280_humidity;BME280_pressure;Samples;Min_cycle;Max_cycle;Signal;HPM_P1;HPM_P2
2023/09/11 00:00:35;;;;;;;8.75;6.50;;;25.20;71.60;;;;;;5113032;28;20024;-36
2023/09/11 00:03:02;;;;;;;11.13;6.95;;;25.20;71.70;;;;;;5112986;28;20020;-36
2023/09/11 00:05:28;;;;;;;7.30;6.45;;;25.10;71.80;;;;;;5112807;28;20036;-36
2023/09/11 00:07:53;;;;;;;7.20;6.50;;;25.10;71.80;;;;;;5112747;28;20111;-35
2023/09/11 00:10:19;;;;;;;9.40;6.35;;;25.10;71.90;;;;;;5112725;28;20178;-35
2023/09/11 00:12:44;;;;;;;8.35;6.75;;;25.10;72.00;;;;;;5112776;28;20496;-35
2023/09/11 00:15:10;;;;;;;11.68;6.72;;;25.10;72.00;;;;;;5112556;28;20427;-36
2023/09/11 00:17:36;;;;;;;6.90;6.20;;;25.00;72.00;;;;;;5112814;28;20027;-35
2023/09/11 00:20:10;;;;;;;9.00;6.65;;;25.00;72.10;;;;;;5112863;28;20023;-36
2023/09/11 00:22:38;;;;;;;9.63;6.53;;;25.00;72.30;;;;;;5112514;28;20088;-36
2023/09/11 00:25:04;;;;;;;10.15;6.63;;;25.00;72.30;;;;;;5112436;28;20015;-36
2023/09/11 00:27:30;;;;;;;7.78;6.47;;;24.90;72.40;;;;;;5112231;28;20458;-36
2023/09/11 00:29:57;;;;;;;8.90;6.45;;;24.90;72.50;;;;;;5112475;28;20028;-36
2023/09/11 00:32:23;;;;;;;11.25;6.93;;;24.90;72.50;;;;;;5112647;28;20389;-37
2023/09/11 00:34:49;;;;;;;7.28;5.97;;;24.90;72.70;;;;;;5112308;28;20038;-36
2023/09/11 00:37:14;;;;;;;8.55;6.68;;;24.90;72.80;;;;;;5112098;28;20052;-35
2023/09/11 00:39:40;;;;;;;9.23;6.72;;;24.80;72.70;;;;;;5112309;28;20396;-36
2023/09/11 00:42:05;;;;;;;9.40;7.05;;;24.80;72.80;;;;;;5112289;28;20036;-35
2023/09/11 00:44:31;;;;;;;8.25;6.82;;;24.80;73.00;;;;;;5112006;28;20092;-36
2023/09/11 00:46:57;;;;;;;9.90;7.68;;;24.70;73.00;;;;;;5112067;28;20027;-36
2023/09/11 00:49:24;;;;;;;10.57;7.18;;;24.70;73.10;;;;;;5112245;28;20480;-34
2023/09/11 00:51:50;;;;;;;9.88;7.93;;;24.70;73.20;;;;;;5112113;28;20452;-37
2023/09/11 00:54:18;;;;;;;9.90;7.25;;;24.70;73.30;;;;;;5111854;28;20059;-34
2023/09/11 00:56:45;;;;;;;7.63;6.82;;;24.70;73.40;;;;;;5111979;28;20032;-36
2023/09/11 00:59:12;;;;;;;7.60;6.60;;;24.60;73.40;;;;;;5112038;28;20036;-37
2023/09/11 01:01:41;;;;;;;9.25;7.85;;;24.60;73.50;;;;;;5111579;28;20056;-36
2023/09/11 01:04:07;;;;;;;8.00;7.20;;;24.60;73.50;;;;;;5093741;28;20520;-36
2023/09/11 01:06:33;;;;;;;8.40;6.82;;;24.50;73.60;;;;;;5112111;28;20052;-37
2023/09/11 01:08:58;;;;;;;10.05;7.13;;;24.60;73.70;;;;;;5112026;28;20484;-36
2023/09/11 01:11:24;;;;;;;8.10;7.30;;;24.50;73.70;;;;;;5093745;28;20027;-36
2023/09/11 01:13:50;;;;;;;8.15;7.18;;;24.50;73.80;;;;;;5111997;28;20615;-36
2023/09/11 01:16:35;;;;;;;12.77;7.55;;;24.50;73.80;;;;;;5112147;28;20020;-35
2023/09/11 01:19:18;;;;;;;12.65;7.88;;;24.50;74.00;;;;;;5111811;28;20138;-37
2023/09/11 01:22:24;;;;;;;10.95;8.10;;;24.50;74.00;;;;;;5111896;28;20032;-36
2023/09/11 01:25:01;;;;;;;8.18;7.15;;;24.40;74.10;;;;;;5111773;28;20031;-35
2023/09/11 01:27:36;;;;;;;10.85;7.93;;;24.40;74.20;;;;;;5111664;28;20039;-36
2023/09/11 01:30:04;;;;;;;11.07;8.18;;;24.30;74.10;;;;;;5111886;28;20388;-36
2023/09/11 01:32:31;;;;;;;12.82;7.68;;;24.30;74.50;;;;;;5111892;28;20015;-36
2023/09/11 01:34:56;;;;;;;10.68;7.90;;;24.40;74.30;;;;;;5111879;28;20023;-35
2023/09/11 01:37:22;;;;;;;9.43;7.55;;;24.30;74.30;;;;;;5093471;28;20020;-36
2023/09/11 01:39:48;;;;;;;11.00;8.18;;;24.30;74.30;;;;;;5111795;28;20023;-34
2023/09/11 01:42:20;;;;;;;10.25;7.60;;;24.30;74.40;;;;;;5111909;28;20023;-36
2023/09/11 01:44:47;;;;;;;11.40;8.15;;;24.30;74.40;;;;;;5111688;28;20095;-35
2023/09/11 01:47:17;;;;;;;9.98;7.95;;;24.30;74.40;;;;;;5111841;28;20023;-37
2023/09/11 01:49:45;;;;;;;10.75;7.97;;;24.30;74.50;;;;;;5114338;28;20023;-37
2023/09/11 01:52:12;;;;;;;12.00;8.13;;;24.30;74.50;;;;;;5115536;28;20421;-36
2023/09/11 01:54:38;;;;;;;11.70;8.32;;;24.20;74.50;;;;;;5115525;28;20024;-35
2023/09/11 01:57:05;;;;;;;10.13;7.65;;;24.30;74.50;;;;;;5097493;28;20020;-35
2023/09/11 01:59:31;;;;;;;10.90;8.25;;;24.20;74.70;;;;;;5115327;28;20480;-36
2023/09/11 02:01:57;;;;;;;10.05;7.85;;;24.20;74.70;;;;;;5115569;28;20015;-33
2023/09/11 02:04:22;;;;;;;10.27;8.05;;;24.10;74.70;;;;;;5115171;28;20413;-35
2023/09/11 02:06:48;;;;;;;8.57;7.63;;;24.10;74.90;;;;;;5114339;28;20055;-35
2023/09/11 02:09:13;;;;;;;11.32;8.02;;;24.10;74.90;;;;;;5114691;28;20097;-35
2023/09/11 02:11:39;;;;;;;10.80;8.65;;;24.10;75.00;;;;;;5114917;28;20016;-35
2023/09/11 02:14:05;;;;;;;9.93;7.95;;;24.00;75.00;;;;;;5114511;28;20481;-34
2023/09/11 02:16:30;;;;;;;11.98;7.65;;;24.10;75.10;;;;;;5114991;28;20072;-35
2023/09/11 02:18:56;;;;;;;9.82;7.63;;;24.00;75.10;;;;;;5114867;28;20030;-33
2023/09/11 02:21:21;;;;;;;10.80;8.32;;;24.00;75.20;;;;;;5114902;28;20050;-36
2023/09/11 02:23:47;;;;;;;9.40;7.93;;;24.00;75.20;;;;;;5096686;28;20023;-36
2023/09/11 02:26:12;;;;;;;11.60;8.70;;;24.00;75.20;;;;;;5114867;28;20019;-36
2023/09/11 02:28:38;;;;;;;12.07;8.13;;;24.00;75.30;;;;;;5114826;28;20044;-35
2023/09/11 02:31:04;;;;;;;10.27;8.10;;;24.00;75.30;;;;;;5114837;28;20028;-36
2023/09/11 02:33:29;;;;;;;13.95;9.55;;;24.00;75.30;;;;;;5114946;28;20054;-34
2023/09/11 02:35:56;;;;;;;11.38;8.60;;;24.00;75.30;;;;;;5114991;28;20026;-36
2023/09/11 02:38:22;;;;;;;12.10;8.50;;;24.00;75.40;;;;;;5114601;28;20031;-36
2023/09/11 02:40:48;;;;;;;10.07;8.52;;;23.90;75.50;;;;;;5114592;28;20024;-36
2023/09/11 02:43:14;;;;;;;11.23;8.80;;;23.90;75.50;;;;;;5114552;28;20107;-36
2023/09/11 02:45:42;;;;;;;12.88;8.85;;;23.90;75.60;;;;;;5114853;28;20149;-34
2023/09/11 02:48:08;;;;;;;9.90;8.25;;;23.80;75.70;;;;;;5114813;28;20039;-35
2023/09/11 02:50:33;;;;;;;15.98;9.23;;;23.80;75.80;;;;;;5114564;28;20727;-35
2023/09/11 02:52:59;;;;;;;11.32;8.48;;;23.80;75.80;;;;;;5114422;28;20023;-33
2023/09/11 02:55:24;;;;;;;14.38;8.45;;;23.80;75.90;;;;;;5114581;28;20106;-36
2023/09/11 02:57:50;;;;;;;10.93;8.57;;;23.80;75.90;;;;;;5114344;28;20020;-36
2023/09/11 03:00:16;;;;;;;13.30;9.15;;;23.80;76.00;;;;;;5114330;28;20024;-35
2023/09/11 03:02:41;;;;;;;11.60;8.70;;;23.80;76.00;;;;;;5114534;28;20155;-35
2023/09/11 03:05:08;;;;;;;11.23;8.73;;;23.70;76.00;;;;;;5114106;28;20015;-35
2023/09/11 03:07:33;;;;;;;10.30;8.80;;;23.70;75.90;;;;;;5114267;28;20499;-36
2023/09/11 03:09:59;;;;;;;12.02;8.82;;;23.70;75.90;;;;;;5114215;28;20107;-35
2023/09/11 03:12:24;;;;;;;11.18;8.43;;;23.70;75.90;;;;;;5095796;28;20035;-37
2023/09/11 03:14:53;;;;;;;10.77;8.70;;;23.70;76.00;;;;;;5114200;28;20536;-35
2023/09/11 03:17:19;;;;;;;10.85;8.75;;;23.70;76.00;;;;;;5114012;28;20027;-36
2023/09/11 03:19:45;;;;;;;11.40;8.48;;;23.70;76.10;;;;;;5114208;28;20027;-36
2023/09/11 03:22:11;;;;;;;13.15;8.90;;;23.60;76.10;;;;;;5114265;28;20381;-36
2023/09/11 03:24:36;;;;;;;10.15;8.48;;;23.60;76.20;;;;;;5113960;28;20369;-37
2023/09/11 03:27:02;;;;;;;11.73;8.00;;;23.60;76.20;;;;;;5113575;28;20040;-36
2023/09/11 03:29:28;;;;;;;10.40;8.50;;;23.60;76.30;;;;;;5114007;28;20023;-35
2023/09/11 03:31:53;;;;;;;12.02;8.10;;;23.50;76.30;;;;;;5114142;28;20049;-36
2023/09/11 03:34:19;;;;;;;12.18;8.70;;;23.50;76.40;;;;;;5113413;28;20382;-35
2023/09/11 03:36:44;;;;;;;14.13;9.02;;;23.50;76.40;;;;;;5113605;28;20024;-36
2023/09/11 03:39:10;;;;;;;11.35;8.88;;;23.50;76.50;;;;;;5113674;28;20012;-35
2023/09/11 03:41:35;;;;;;;10.93;8.70;;;23.50;76.50;;;;;;5113564;28;20473;-34
2023/09/11 03:44:01;;;;;;;9.98;8.93;;;23.40;76.50;;;;;;5113236;28;20020;-36
2023/09/11 03:46:26;;;;;;;11.38;8.48;;;23.40;76.60;;;;;;5113338;28;20069;-34
2023/09/11 03:48:52;;;;;;;11.73;8.73;;;23.40;76.70;;;;;;5113525;28;20365;-35
2023/09/11 03:51:18;;;;;;;11.75;9.02;;;23.40;76.80;;;;;;5113377;28;20019;-33
2023/09/11 03:53:44;;;;;;;11.32;8.48;;;23.30;76.80;;;;;;5113184;28;20473;-36
2023/09/11 03:56:13;;;;;;;11.27;8.75;;;23.30;76.90;;;;;;5113039;28;20076;-35
2023/09/11 03:58:39;;;;;;;9.93;8.75;;;23.30;77.00;;;;;;5113397;28;20020;-35
2023/09/11 04:01:05;;;;;;;11.15;8.88;;;23.30;77.00;;;;;;5112978;28;20032;-35
2023/09/11 04:03:31;;;;;;;10.30;9.02;;;23.20;77.00;;;;;;5113238;28;20023;-35
2023/09/11 04:05:56;;;;;;;11.52;9.02;;;23.20;77.00;;;;;;5113277;28;20055;-35
2023/09/11 04:08:22;;;;;;;13.02;8.98;;;23.20;77.10;;;;;;5112999;28;20393;-36
2023/09/11 04:10:47;;;;;;;13.90;9.02;;;23.20;77.80;;;;;;5113150;28;20069;-35
2023/09/11 04:13:13;;;;;;;14.73;9.63;;;23.20;77.20;;;;;;5112511;28;20103;-36
2023/09/11 04:15:40;;;;;;;12.23;9.80;;;23.20;77.20;;;;;;5112701;28;20050;-35
2023/09/11 04:18:06;;;;;;;13.00;9.30;;;23.10;77.20;;;;;;5112552;28;20015;-33
2023/09/11 04:20:33;;;;;;;12.07;9.63;;;23.10;77.30;;;;;;5112537;28;20042;-35
2023/09/11 04:23:00;;;;;;;12.63;9.23;;;23.00;77.40;;;;;;5112718;28;20242;-35
2023/09/11 04:25:26;;;;;;;10.98;9.18;;;23.10;77.50;;;;;;5112526;28;20038;-35
2023/09/11 04:27:51;;;;;;;10.48;9.38;;;23.00;77.50;;;;;;5112395;28;20489;-36
2023/09/11 04:30:17;;;;;;;10.60;9.00;;;23.00;77.50;;;;;;5094302;28;20099;-35
2023/09/11 04:32:43;;;;;;;11.35;9.43;;;23.00;77.60;;;;;;5112591;28;20047;-35
2023/09/11 04:35:09;;;;;;;11.38;9.65;;;23.00;77.60;;;;;;5112299;28;20057;-34
2023/09/11 04:37:36;;;;;;;11.70;9.48;;;22.90;77.60;;;;;;5112626;28;20028;-35
2023/09/11 04:40:05;;;;;;;15.75;9.13;;;22.90;77.60;;;;;;5112479;28;20019;-35
2023/09/11 04:42:30;;;;;;;11.50;9.60;;;22.90;78.30;;;;;;5112277;28;20027;-36
2023/09/11 04:44:58;;;;;;;16.25;10.07;;;22.90;77.80;;;;;;5093835;28;20027;-35
2023/09/11 04:47:30;;;;;;;14.57;10.23;;;22.80;77.80;;;;;;5112449;28;20023;-35
2023/09/11 04:49:56;;;;;;;13.23;10.32;;;22.90;77.90;;;;;;5094459;28;20045;-35
2023/09/11 04:52:21;;;;;;;13.05;10.05;;;22.80;77.90;;;;;;5112575;28;20027;-36
2023/09/11 04:54:47;;;;;;;13.52;10.23;;;22.80;77.90;;;;;;5112072;28;20023;-35
2023/09/11 04:57:13;;;;;;;11.18;9.75;;;22.80;77.90;;;;;;5111971;28;20062;-35
2023/09/11 04:59:38;;;;;;;13.52;9.93;;;22.80;78.00;;;;;;5112108;28;20027;-34
2023/09/11 05:02:04;;;;;;;13.27;10.23;;;22.80;78.00;;;;;;5112170;28;20069;-36
2023/09/11 05:04:29;;;;;;;13.85;10.07;;;22.80;78.10;;;;;;5111925;28;20024;-35
2023/09/11 05:06:55;;;;;;;13.30;10.55;;;22.80;78.10;;;;;;5111959;28;20063;-35
2023/09/11 05:09:20;;;;;;;15.40;10.27;;;22.80;78.10;;;;;;5112051;28;20095;-34
2023/09/11 05:11:46;;;;;;;11.35;10.02;;;22.80;78.10;;;;;;5112374;28;20028;-37
2023/09/11 05:14:12;;;;;;;12.30;10.00;;;22.90;78.10;;;;;;5111940;28;20022;-35
2023/09/11 05:16:38;;;;;;;13.60;10.70;;;22.90;78.10;;;;;;5112287;28;20041;-34
2023/09/11 05:19:04;;;;;;;13.82;10.55;;;22.90;78.10;;;;;;5111936;28;20032;-36
2023/09/11 05:21:30;;;;;;;18.00;10.55;;;22.90;78.10;;;;;;5112077;28;20156;-35
2023/09/11 05:23:56;;;;;;;11.50;10.38;;;22.90;78.10;;;;;;5113463;28;20024;-36
2023/09/11 05:26:21;;;;;;;15.13;11.05;;;22.90;78.10;;;;;;5115726;28;20054;-36
2023/09/11 05:28:47;;;;;;;17.92;10.52;;;22.90;78.10;;;;;;5116140;28;20457;-35
2023/09/11 05:31:13;;;;;;;14.80;10.90;;;22.90;78.10;;;;;;5115975;28;20030;-36
2023/09/11 05:33:38;;;;;;;16.27;11.25;;;22.90;78.10;;;;;;5116340;28;20027;-35
2023/09/11 05:36:05;;;;;;;11.18;10.05;;;22.90;78.10;;;;;;5116110;28;20019;-38
2023/09/11 05:38:30;;;;;;;12.68;10.98;;;22.90;78.70;;;;;;5114697;28;20020;-36
2023/09/11 05:40:56;;;;;;;12.23;10.80;;;23.00;78.70;;;;;;5116020;28;20077;-37
2023/09/11 05:43:22;;;;;;;13.77;11.15;;;23.00;78.10;;;;;;5115459;28;20035;-36
2023/09/11 05:45:47;;;;;;;14.32;11.07;;;23.00;78.10;;;;;;5115842;28;20055;-35
2023/09/11 05:48:13;;;;;;;17.30;11.25;;;23.00;78.10;;;;;;5115936;28;20457;-35
2023/09/11 05:50:38;;;;;;;13.13;11.35;;;23.00;78.10;;;;;;5115879;28;20015;-35
2023/09/11 05:53:07;;;;;;;13.10;11.52;;;23.10;78.10;;;;;;5115433;28;20362;-36
2023/09/11 05:55:33;;;;;;;11.00;9.82;;;23.10;78.00;;;;;;5115327;28;20053;-36
2023/09/11 05:58:02;;;;;;;13.18;10.50;;;23.10;78.00;;;;;;5115819;28;20090;-36
2023/09/11 06:00:28;;;;;;;13.65;10.55;;;23.20;78.00;;;;;;5115418;28;20370;-36
2023/09/11 06:02:54;;;;;;;12.32;10.27;;;23.20;78.00;;;;;;5114157;28;20030;-36
2023/09/11 06:05:19;;;;;;;13.57;9.50;;;23.20;77.90;;;;;;5115371;28;20384;-36
2023/09/11 06:07:45;;;;;;;16.70;10.80;;;23.20;77.90;;;;;;5115599;28;20012;-36
2023/09/11 06:10:12;;;;;;;12.73;9.80;;;23.20;77.90;;;;;;5115295;28;20027;-34
2023/09/11 06:12:38;;;;;;;11.27;9.20;;;23.30;77.90;;;;;;5115215;28;20061;-33
2023/09/11 06:15:05;;;;;;;14.45;10.60;;;23.30;77.70;;;;;;5114871;28;20110;-35
2023/09/11 06:17:34;;;;;;;12.93;10.73;;;23.30;77.70;;;;;;5115724;28;20632;-36
2023/09/11 06:20:00;;;;;;;12.15;10.48;;;23.30;77.70;;;;;;5114926;28;20122;-34
2023/09/11 06:22:26;;;;;;;14.25;10.75;;;23.30;77.60;;;;;;5115018;28;20107;-34
2023/09/11 06:24:52;;;;;;;12.57;9.73;;;23.40;77.60;;;;;;5114815;28;20069;-36
2023/09/11 06:27:18;;;;;;;14.35;10.30;;;23.40;77.60;;;;;;5114213;28;20489;-36
2023/09/11 06:29:44;;;;;;;11.15;9.70;;;23.50;77.50;;;;;;5113935;28;20107;-37
2023/09/11 06:32:15;;;;;;;12.25;10.02;;;23.50;77.40;;;;;;5113320;28;20052;-36
2023/09/11 06:34:40;;;;;;;12.82;10.18;;;23.60;77.40;;;;;;5113077;28;20107;-35
2023/09/11 06:37:09;;;;;;;14.00;10.60;;;23.60;77.30;;;;;;5113771;28;20059;-35
2023/09/11 06:39:34;;;;;;;12.18;9.48;;;23.70;77.20;;;;;;5113551;28;20030;-36
2023/09/11 06:42:00;;;;;;;12.00;10.32;;;23.70;77.20;;;;;;5113805;28;20031;-35
2023/09/11 06:44:25;;;;;;;13.70;9.85;;;23.70;77.10;;;;;;5113560;28;20487;-36
2023/09/11 06:46:51;;;;;;;12.88;9.75;;;23.70;77.00;;;;;;5113261;28;20179;-33
2023/09/11 06:49:16;;;;;;;11.15;9.32;;;23.70;76.90;;;;;;5113355;28;20020;-37
2023/09/11 06:51:42;;;;;;;10.73;9.07;;;23.70;76.80;;;;;;5113298;28;20091;-36
2023/09/11 06:54:09;;;;;;;9.85;8.77;;;23.80;76.60;;;;;;5113092;28;20020;-36
2023/09/11 06:56:36;;;;;;;9.75;8.75;;;23.80;76.50;;;;;;5113372;28;20035;-35
2023/09/11 06:59:01;;;;;;;9.95;7.90;;;23.80;76.30;;;;;;5113530;28;20031;-33
2023/09/11 07:01:27;;;;;;;11.48;9.68;;;23.90;76.20;;;;;;5094946;28;20126;-35
2023/09/11 07:03:52;;;;;;;13.15;9.40;;;24.00;76.00;;;;;;5113162;28;20110;-36
2023/09/11 07:06:18;;;;;;;9.73;8.48;;;24.00;75.80;;;;;;5112923;28;20035;-34
2023/09/11 07:08:44;;;;;;;8.70;7.80;;;24.10;75.60;;;;;;5113307;28;20403;-35
2023/09/11 07:11:09;;;;;;;10.85;7.95;;;24.10;75.30;;;;;;5113467;28;20026;-36
2023/09/11 07:13:35;;;;;;;12.13;8.07;;;24.20;75.20;;;;;;5113234;28;20095;-36
2023/09/11 07:16:01;;;;;;;9.10;7.70;;;24.20;75.10;;;;;;5113094;28;20524;-34
2023/09/11 07:18:27;;;;;;;8.35;6.95;;;24.30;74.90;;;;;;5113178;28;20103;-35
2023/09/11 07:20:53;;;;;;;11.05;7.35;;;24.30;74.60;;;;;;5112831;28;20068;-36
2023/09/11 07:23:20;;;;;;;9.18;7.60;;;24.40;74.30;;;;;;5113096;28;20023;-35
2023/09/11 07:25:47;;;;;;;10.55;6.85;;;24.40;74.00;;;;;;5112638;28;20030;-35
2023/09/11 07:28:13;;;;;;;7.78;6.60;;;24.50;73.80;;;;;;5075505;28;1067010;-35
2023/09/11 07:30:39;;;;;;;8.77;6.78;;;24.50;73.50;;;;;;5114164;28;20114;-35
2023/09/11 07:33:05;;;;;;;7.80;6.70;;;24.60;73.40;;;;;;5095591;28;20507;-37
2023/09/11 07:35:31;;;;;;;9.27;6.35;;;24.60;73.10;;;;;;5113389;28;20033;-34
2023/09/11 07:37:56;;;;;;;11.20;6.70;;;24.70;72.90;;;;;;5113930;28;20131;-35
2023/09/11 07:40:22;;;;;;;8.77;5.88;;;24.70;72.60;;;;;;5113718;28;20039;-35
2023/09/11 07:42:48;;;;;;;7.53;5.85;;;24.70;72.40;;;;;;5113791;28;20051;-36
2023/09/11 07:45:14;;;;;;;13.30;6.25;;;24.70;72.20;;;;;;5113344;28;20050;-35
2023/09/11 07:47:39;;;;;;;9.48;6.68;;;24.80;72.00;;;;;;5112798;28;20476;-35
2023/09/11 07:50:05;;;;;;;8.57;6.40;;;24.80;71.50;;;;;;5113771;28;20239;-35
2023/09/11 07:52:31;;;;;;;6.97;6.10;;;24.80;71.30;;;;;;5095011;28;20507;-35
2023/09/11 07:54:57;;;;;;;11.30;6.90;;;24.70;71.10;;;;;;5113516;28;20020;-34
2023/09/11 07:57:23;;;;;;;9.63;6.70;;;24.70;70.90;;;;;;5113037;28;20028;-34
2023/09/11 07:59:49;;;;;;;7.40;6.70;;;24.70;70.80;;;;;;5113262;28;20030;-35
2023/09/11 08:02:15;;;;;;;8.88;7.30;;;24.70;70.70;;;;;;5113520;28;20031;-35
2023/09/11 08:04:41;;;;;;;10.27;7.00;;;24.70;70.70;;;;;;5113313;28;20024;-34
2023/09/11 08:07:06;;;;;;;8.90;6.63;;;24.80;70.70;;;;;;5112994;28;20389;-36
2023/09/11 08:09:32;;;;;;;7.90;6.03;;;24.80;70.70;;;;;;5113189;28;20080;-34
2023/09/11 08:11:58;;;;;;;9.00;6.65;;;24.80;70.70;;;;;;5112906;28;20032;-35
2023/09/11 08:14:23;;;;;;;9.23;6.93;;;24.80;70.70;;;;;;5112811;28;20023;-34
2023/09/11 08:16:49;;;;;;;8.18;6.97;;;24.80;70.60;;;;;;5113083;28;20110;-34
2023/09/11 08:19:15;;;;;;;9.07;7.28;;;24.90;70.60;;;;;;5112897;28;20027;-36
2023/09/11 08:21:40;;;;;;;9.27;6.90;;;24.90;70.40;;;;;;5113132;28;20405;-36
2023/09/11 08:24:06;;;;;;;8.55;7.30;;;24.90;70.30;;;;;;5112542;28;20024;-35
2023/09/11 08:26:33;;;;;;;7.80;7.00;;;24.90;70.10;;;;;;5112787;28;20055;-35
2023/09/11 08:28:59;;;;;;;8.55;7.07;;;24.90;70.10;;;;;;5113009;28;20472;-34
2023/09/11 08:31:24;;;;;;;9.82;7.10;;;25.00;70.10;;;;;;5112578;28;20031;-35
2023/09/11 08:33:50;;;;;;;8.18;6.90;;;25.00;70.00;;;;;;5112877;28;20024;-34
2023/09/11 08:36:17;;;;;;;9.88;6.85;;;25.00;70.00;;;;;;5112522;28;20094;-36
2023/09/11 08:38:45;;;;;;;8.73;6.95;;;25.10;70.00;;;;;;5112786;28;20050;-34
2023/09/11 08:41:12;;;;;;;11.32;7.30;;;25.10;69.90;;;;;;5112242;28;20047;-35
2023/09/11 08:43:39;;;;;;;7.18;6.50;;;25.20;69.90;;;;;;5112488;28;20092;-34
2023/09/11 08:46:06;;;;;;;10.80;7.35;;;25.20;69.80;;;;;;5112101;28;20035;-35
2023/09/11 08:48:35;;;;;;;9.57;6.90;;;25.30;69.80;;;;;;5094181;28;20751;-34
2023/09/11 08:51:08;;;;;;;8.15;7.35;;;25.30;69.70;;;;;;5112183;28;20032;-34
2023/09/11 08:53:36;;;;;;;9.02;7.30;;;25.30;69.80;;;;;;5094784;28;20051;-35
2023/09/11 08:56:02;;;;;;;10.13;7.43;;;25.30;69.60;;;;;;5112370;28;20110;-36
2023/09/11 08:58:30;;;;;;;9.93;7.72;;;25.40;69.60;;;;;;5112546;28;20566;-36
2023/09/11 09:00:56;;;;;;;10.32;7.03;;;25.40;69.50;;;;;;5094023;28;20031;-36
2023/09/11 09:03:24;;;;;;;9.10;7.00;;;25.40;69.50;;;;;;5112370;28;20529;-36
2023/09/11 09:05:50;;;;;;;8.65;7.20;;;25.40;69.40;;;;;;5112159;28;20425;-35
2023/09/11 09:08:16;;;;;;;8.27;6.97;;;25.50;69.40;;;;;;5093441;28;20085;-36
2023/09/11 09:10:43;;;;;;;11.73;8.10;;;25.60;69.40;;;;;;5112210;28;20428;-35
2023/09/11 09:13:10;;;;;;;10.63;6.82;;;25.60;69.20;;;;;;5112313;28;20058;-35
2023/09/11 09:15:41;;;;;;;8.70;6.88;;;25.70;69.20;;;;;;5112117;28;20024;-36
2023/09/11 09:18:08;;;;;;;13.73;7.15;;;25.70;69.00;;;;;;5112184;28;20566;-37
2023/09/11 09:20:34;;;;;;;10.55;7.13;;;25.80;68.80;;;;;;5112001;28;20020;-35
2023/09/11 09:23:01;;;;;;;9.75;7.50;;;25.80;68.80;;;;;;5111865;28;20027;-35
2023/09/11 09:25:28;;;;;;;9.18;7.22;;;25.90;68.80;;;;;;5111775;28;20019;-35
2023/09/11 09:27:56;;;;;;;8.05;6.78;;;25.90;68.60;;;;;;5111849;28;20052;-36
2023/09/11 09:30:28;;;;;;;8.30;6.57;;;26.00;68.60;;;;;;5111993;28;20026;-34
2023/09/11 09:32:54;;;;;;;10.45;6.60;;;26.00;68.30;;;;;;5112346;28;20480;-35
2023/09/11 09:35:31;;;;;;;8.88;6.72;;;26.00;68.20;;;;;;5093628;28;20036;-35
2023/09/11 09:37:58;;;;;;;8.68;7.60;;;26.10;68.10;;;;;;5111736;28;20055;-35
2023/09/11 09:40:36;;;;;;;9.45;7.28;;;26.10;67.90;;;;;;5111867;28;20060;-34
2023/09/11 09:43:05;;;;;;;9.15;6.97;;;26.20;67.90;;;;;;5111751;28;20056;-35
2023/09/11 09:45:30;;;;;;;11.27;7.10;;;26.20;67.80;;;;;;5111743;28;20038;-35
2023/09/11 09:48:14;;;;;;;7.30;6.55;;;26.20;67.80;;;;;;5111686;28;20033;-35
2023/09/11 09:51:01;;;;;;;9.57;6.80;;;26.30;67.80;;;;;;5112049;28;20038;-34
2023/09/11 09:53:41;;;;;;;8.75;6.97;;;26.40;67.80;;;;;;5111999;28;20028;-36
2023/09/11 09:56:08;;;;;;;9.60;7.00;;;26.40;67.80;;;;;;5111751;28;20020;-36
2023/09/11 09:58:39;;;;;;;9.85;7.57;;;26.40;67.70;;;;;;5111775;28;20031;-36
2023/09/11 10:01:10;;;;;;;12.07;7.68;;;26.50;67.60;;;;;;5111432;28;20111;-36
2023/09/11 10:03:53;;;;;;;10.15;7.07;;;26.60;67.60;;;;;;5111918;28;20376;-35
2023/09/11 10:06:21;;;;;;;8.95;6.40;;;26.60;67.40;;;;;;5111486;28;20028;-35
2023/09/11 10:09:02;;;;;;;8.13;6.90;;;26.70;67.40;;;;;;5111760;28;20111;-35
2023/09/11 10:11:30;;;;;;;9.05;7.10;;;26.80;67.30;;;;;;5115311;28;20106;-34
2023/09/11 10:13:59;;;;;;;9.20;7.20;;;26.90;67.20;;;;;;5097124;28;20061;-36
2023/09/11 10:16:26;;;;;;;9.73;7.15;;;26.90;66.90;;;;;;5115465;28;20023;-38
2023/09/11 10:18:53;;;;;;;8.60;7.32;;;26.90;66.90;;;;;;5115469;28;20407;-37
2023/09/11 10:21:19;;;;;;;7.78;6.50;;;27.00;66.80;;;;;;5115285;28;20035;-34
2023/09/11 10:23:46;;;;;;;8.52;6.40;;;27.00;66.60;;;;;;5115158;28;20039;-37
2023/09/11 10:26:34;;;;;;;7.55;6.38;;;27.10;66.40;;;;;;5114951;28;20093;-35
2023/09/11 10:29:05;;;;;;;8.70;6.28;;;27.10;66.10;;;;;;5115042;28;20047;-34
2023/09/11 10:31:48;;;;;;;9.60;5.90;;;27.20;65.90;;;;;;5114959;28;20254;-35
2023/09/11 10:34:14;;;;;;;7.90;5.43;;;27.20;65.80;;;;;;5114825;28;20024;-34
2023/09/11 10:36:46;;;;;;;7.35;5.30;;;27.30;65.20;;;;;;5114861;28;20038;-34
2023/09/11 10:39:14;;;;;;;6.57;5.40;;;27.40;64.80;;;;;;5114881;28;20480;-34
2023/09/11 10:41:41;;;;;;;10.57;5.50;;;27.40;64.80;;;;;;5114733;28;20135;-34
2023/09/11 10:44:07;;;;;;;8.48;5.90;;;27.50;64.70;;;;;;5114581;28;20032;-35
2023/09/11 10:46:39;;;;;;;8.13;5.07;;;27.50;64.10;;;;;;5114625;28;20035;-32
2023/09/11 10:49:16;;;;;;;6.68;5.35;;;27.60;64.10;;;;;;5114821;28;20016;-39
2023/09/11 10:51:42;;;;;;;10.25;5.10;;;27.60;64.00;;;;;;5114464;28;20056;-35
2023/09/11 10:54:12;;;;;;;10.35;5.30;;;27.60;63.90;;;;;;5114512;28;20047;-36
2023/09/11 10:56:38;;;;;;;6.55;5.28;;;27.70;63.00;;;;;;5114385;28;20030;-35
2023/09/11 10:59:04;;;;;;;7.43;5.57;;;27.70;63.00;;;;;;5114613;28;20027;-34
2023/09/11 11:01:32;;;;;;;7.57;5.35;;;27.80;63.10;;;;;;5114442;28;20055;-35
2023/09/11 11:04:02;;;;;;;6.22;5.55;;;27.80;63.10;;;;;;5114573;28;20027;-31
2023/09/11 11:06:29;;;;;;;7.53;4.28;;;27.80;62.90;;;;;;5114226;28;20035;-36
2023/09/11 11:08:55;;;;;;;5.72;4.70;;;27.90;62.80;;;;;;5114487;28;20027;-36
2023/09/11 11:11:29;;;;;;;6.32;4.80;;;27.90;62.60;;;;;;5114423;28;20027;-36
2023/09/11 11:14:11;;;;;;;8.05;4.93;;;28.00;62.30;;;;;;5114585;28;20105;-35
2023/09/11 11:16:38;;;;;;;9.82;5.40;;;28.10;62.10;;;;;;5114486;28;20030;-36
2023/09/11 11:19:04;;;;;;;7.53;4.97;;;28.10;61.80;;;;;;5113979;28;20092;-37
2023/09/11 11:21:40;;;;;;;7.50;4.57;;;28.10;61.40;;;;;;5112820;28;20452;-36
2023/09/11 11:24:08;;;;;;;6.60;5.00;;;28.20;60.90;;;;;;5114017;28;20035;-36
2023/09/11 11:26:40;;;;;;;6.05;4.50;;;28.20;61.00;;;;;;5113976;28;20028;-36
2023/09/11 11:29:06;;;;;;;7.30;4.32;;;28.30;60.80;;;;;;5113971;28;20075;-37
2023/09/11 11:31:32;;;;;;;7.97;4.85;;;28.40;60.80;;;;;;5114111;28;20442;-35
2023/09/11 11:33:58;;;;;;;6.70;4.45;;;28.40;60.30;;;;;;5114233;28;20019;-35
2023/09/11 11:36:26;;;;;;;8.23;3.90;;;28.50;60.20;;;;;;5113849;28;20027;-36
2023/09/11 11:38:55;;;;;;;6.30;4.28;;;28.50;59.90;;;;;;5113652;28;20108;-38
2023/09/11 11:41:21;;;;;;;4.85;4.13;;;28.50;59.90;;;;;;5113887;28;20405;-35
2023/09/11 11:43:46;;;;;;;6.68;4.60;;;28.50;59.90;;;;;;5113725;28;20031;-36
2023/09/11 11:46:13;;;;;;;8.02;4.28;;;28.60;59.60;;;;;;5113319;28;20028;-36
2023/09/11 11:48:40;;;;;;;6.65;4.38;;;28.70;59.70;;;;;;5113858;28;20028;-37
2023/09/11 11:51:06;;;;;;;6.63;4.30;;;28.80;59.70;;;;;;5113418;28;20058;-37
2023/09/11 11:53:32;;;;;;;6.72;4.60;;;28.80;59.30;;;;;;5113465;28;20063;-36
2023/09/11 11:56:00;;;;;;;8.48;4.18;;;28.90;58.50;;;;;;5113278;28;20038;-35
2023/09/11 11:58:26;;;;;;;8.60;4.82;;;28.90;58.40;;;;;;5113579;28;20024;-36
2023/09/11 12:01:00;;;;;;;7.78;4.68;;;28.90;58.30;;;;;;5113613;28;20035;-36
2023/09/11 12:03:30;;;;;;;7.97;4.85;;;29.00;58.40;;;;;;5113128;28;20483;-36
2023/09/11 12:05:58;;;;;;;7.50;4.80;;;29.10;58.50;;;;;;5113117;28;20085;-36
2023/09/11 12:08:24;;;;;;;7.80;5.93;;;29.10;58.20;;;;;;5113115;28;20023;-36
2023/09/11 12:10:50;;;;;;;7.32;4.72;;;29.20;58.10;;;;;;5113520;28;20027;-35
2023/09/11 12:13:22;;;;;;;8.82;5.07;;;29.20;58.00;;;;;;5113304;28;20024;-37
2023/09/11 12:15:56;;;;;;;7.83;4.50;;;29.20;57.80;;;;;;5113500;28;20024;-38
2023/09/11 12:18:23;;;;;;;8.48;4.90;;;29.20;57.80;;;;;;5113031;28;20023;-37
2023/09/11 12:20:59;;;;;;;6.90;4.60;;;29.30;57.80;;;;;;5113231;28;20481;-37
2023/09/11 12:23:25;;;;;;;7.28;4.57;;;29.30;57.80;;;;;;5112661;28;20532;-37
2023/09/11 12:25:52;;;;;;;8.93;4.50;;;29.30;57.80;;;;;;5113024;28;20030;-35
2023/09/11 12:28:20;;;;;;;5.13;3.67;;;29.40;57.50;;;;;;5112876;28;20050;-37
2023/09/11 12:30:46;;;;;;;7.07;4.25;;;29.50;57.30;;;;;;5112970;28;20015;-35
2023/09/11 12:33:14;;;;;;;7.20;4.97;;;29.50;56.90;;;;;;5112471;28;20030;-35
2023/09/11 12:35:40;;;;;;;5.20;4.32;;;29.60;56.60;;;;;;5094482;28;20027;-36
2023/09/11 12:38:10;;;;;;;5.60;4.10;;;29.70;56.60;;;;;;5112425;28;20119;-35
2023/09/11 12:40:43;;;;;;;6.20;4.47;;;29.70;56.60;;;;;;5112721;28;20023;-37